sensor_id;sensor_type;location;lat;lon;timestamp;P1;durP1;ratioP1;P2;durP2;ratioP2
78732;SDS011;68056;52.530;5.454;2023-11-18T00:01:33;19.33;;;10.50;;
78732;SDS011;68056;52.530;5.454;2023-11-18T00:03:59;24.00;;;12.38;;
78732;SDS011;68056;52.530;5.454;2023-11-18T00:08:55;24.10;;;12.18;;
78732;SDS011;68056;52.530;5.454;2023-11-18T00:11:23;20.27;;;11.98;;
78732;SDS011;68056;52.530;5.454;2023-11-18T00:13:49;18.05;;;10.55;;
78732;SDS011;68056;52.530;5.454;2023-11-18T00:16:15;19.95;;;11.05;;
78732;SDS011;68056;52.530;5.454;2023-11-18T00:18:42;19.90;;;12.32;;
78732;SDS011;68056;52.530;5.454;2023-11-18T00:21:08;16.38;;;10.65;;
78732;SDS011;68056;52.530;5.454;2023-11-18T00:23:34;18.65;;;11.75;;
78732;SDS011;68056;52.530;5.454;2023-11-18T00:25:59;17.40;;;12.23;;
78732;SDS011;68056;52.530;5.454;2023-11-18T00:28:25;20.67;;;11.32;;
78732;SDS011;68056;52.530;5.454;2023-11-18T00:30:51;17.17;;;10.27;;
78732;SDS011;68056;52.530;5.454;2023-11-18T00:33:17;18.27;;;9.60;;
78732;SDS011;68056;52.530;5.454;2023-11-18T00:35:43;15.73;;;10.05;;
78732;SDS011;68056;52.530;5.454;2023-11-18T00:38:10;16.88;;;8.70;;
78732;SDS011;68056;52.530;5.454;2023-11-18T00:40:36;16.38;;;10.65;;
78732;SDS011;68056;52.530;5.454;2023-11-18T00:43:04;20.25;;;11.57;;
78732;SDS011;68056;52.530;5.454;2023-11-18T00:45:30;19.35;;;10.73;;
78732;SDS011;68056;52.530;5.454;2023-11-18T00:47:55;17.60;;;10.25;;
78732;SDS011;68056;52.530;5.454;2023-11-18T00:50:21;15.82;;;9.90;;
78732;SDS011;68056;52.530;5.454;2023-11-18T00:52:47;14.40;;;8.65;;
78732;SDS011;68056;52.530;5.454;2023-11-18T00:55:14;20.17;;;11.45;;
78732;SDS011;68056;52.530;5.454;2023-11-18T00:57:42;17.45;;;10.98;;
78732;SDS011;68056;52.530;5.454;2023-11-18T01:00:12;18.50;;;11.43;;
78732;SDS011;68056;52.530;5.454;2023-11-18T01:02:41;18.48;;;10.10;;
78732;SDS011;68056;52.530;5.454;2023-11-18T01:05:08;23.60;;;11.32;;
78732;SDS011;68056;52.530;5.454;2023-11-18T01:07:35;20.40;;;11.45;;
78732;SDS011;68056;52.530;5.454;2023-11-18T01:10:02;17.67;;;10.80;;
78732;SDS011;68056;52.530;5.454;2023-11-18T01:12:28;18.80;;;11.85;;
78732;SDS011;68056;52.530;5.454;2023-11-18T01:14:54;18.00;;;12.43;;
78732;SDS011;68056;52.530;5.454;2023-11-18T01:17:20;20.55;;;11.57;;
78732;SDS011;68056;52.530;5.454;2023-11-18T01:19:47;16.92;;;9.50;;
78732;SDS011;68056;52.530;5.454;2023-11-18T01:22:12;15.55;;;9.95;;
78732;SDS011;68056;52.530;5.454;2023-11-18T01:24:38;18.55;;;10.43;;
78732;SDS011;68056;52.530;5.454;2023-11-18T01:27:03;17.50;;;10.93;;
78732;SDS011;68056;52.530;5.454;2023-11-18T01:29:32;16.48;;;10.15;;
78732;SDS011;68056;52.530;5.454;2023-11-18T01:31:58;14.32;;;9.15;;
78732;SDS011;68056;52.530;5.454;2023-11-18T01:34:24;16.90;;;8.95;;
78732;SDS011;68056;52.530;5.454;2023-11-18T01:36:50;20.65;;;11.27;;
78732;SDS011;68056;52.530;5.454;2023-11-18T01:39:20;19.23;;;10.27;;
78732;SDS011;68056;52.530;5.454;2023-11-18T01:41:46;14.18;;;9.32;;
78732;SDS011;68056;52.530;5.454;2023-11-18T01:44:15;21.95;;;12.13;;
78732;SDS011;68056;52.530;5.454;2023-11-18T01:46:42;16.83;;;10.45;;
78732;SDS011;68056;52.530;5.454;2023-11-18T01:49:11;21.67;;;12.20;;
78732;SDS011;68056;52.530;5.454;2023-11-18T01:51:43;17.15;;;10.40;;
78732;SDS011;68056;52.530;5.454;2023-11-18T01:54:10;17.88;;;10.45;;
78732;SDS011;68056;52.530;5.454;2023-11-18T01:56:40;20.38;;;10.43;;
78732;SDS011;68056;52.530;5.454;2023-11-18T01:59:08;18.30;;;10.52;;
78732;SDS011;68056;52.530;5.454;2023-11-18T02:01:35;19.02;;;10.70;;
78732;SDS011;68056;52.530;5.454;2023-11-18T02:04:01;19.83;;;11.13;;
78732;SDS011;68056;52.530;5.454;2023-11-18T02:06:27;19.48;;;11.45;;
78732;SDS011;68056;52.530;5.454;2023-11-18T02:08:53;20.55;;;11.75;;
78732;SDS011;68056;52.530;5.454;2023-11-18T02:11:30;19.77;;;11.48;;
78732;SDS011;68056;52.530;5.454;2023-11-18T02:14:12;17.92;;;10.52;;
78732;SDS011;68056;52.530;5.454;2023-11-18T02:16:41;19.10;;;9.77;;
78732;SDS011;68056;52.530;5.454;2023-11-18T02:19:09;20.83;;;12.07;;
78732;SDS011;68056;52.530;5.454;2023-11-18T02:21:46;19.60;;;10.10;;
78732;SDS011;68056;52.530;5.454;2023-11-18T02:24:34;19.50;;;10.60;;
78732;SDS011;68056;52.530;5.454;2023-11-18T02:27:02;19.77;;;10.30;;
78732;SDS011;68056;52.530;5.454;2023-11-18T02:29:32;20.83;;;11.48;;
78732;SDS011;68056;52.530;5.454;2023-11-18T02:32:08;14.23;;;8.35;;
78732;SDS011;68056;52.530;5.454;2023-11-18T02:34:52;20.08;;;9.95;;
78732;SDS011;68056;52.530;5.454;2023-11-18T02:37:27;17.08;;;10.65;;
78732;SDS011;68056;52.530;5.454;2023-11-18T02:40:03;18.27;;;8.88;;
78732;SDS011;68056;52.530;5.454;2023-11-18T02:42:39;19.73;;;9.73;;
78732;SDS011;68056;52.530;5.454;2023-11-18T02:45:07;15.75;;;10.40;;
78732;SDS011;68056;52.530;5.454;2023-11-18T02:47:37;21.40;;;11.18;;
78732;SDS011;68056;52.530;5.454;2023-11-18T02:50:04;15.65;;;9.73;;
78732;SDS011;68056;52.530;5.454;2023-11-18T02:52:35;20.48;;;11.48;;
78732;SDS011;68056;52.530;5.454;2023-11-18T02:55:02;17.45;;;10.25;;
78732;SDS011;68056;52.530;5.454;2023-11-18T02:57:32;16.27;;;10.65;;
78732;SDS011;68056;52.530;5.454;2023-11-18T02:59:58;16.00;;;10.00;;
78732;SDS011;68056;52.530;5.454;2023-11-18T03:02:28;19.80;;;10.48;;
78732;SDS011;68056;52.530;5.454;2023-11-18T03:04:55;16.42;;;11.23;;
78732;SDS011;68056;52.530;5.454;2023-11-18T03:07:24;21.40;;;11.48;;
78732;SDS011;68056;52.530;5.454;2023-11-18T03:09:51;20.25;;;12.20;;
78732;SDS011;68056;52.530;5.454;2023-11-18T03:12:17;19.90;;;9.18;;
78732;SDS011;68056;52.530;5.454;2023-11-18T03:14:43;17.88;;;10.55;;
78732;SDS011;68056;52.530;5.454;2023-11-18T03:17:09;18.50;;;10.25;;
78732;SDS011;68056;52.530;5.454;2023-11-18T03:19:35;18.98;;;10.85;;
78732;SDS011;68056;52.530;5.454;2023-11-18T03:22:01;14.60;;;9.02;;
78732;SDS011;68056;52.530;5.454;2023-11-18T03:24:28;19.85;;;10.85;;
78732;SDS011;68056;52.530;5.454;2023-11-18T03:26:56;15.38;;;9.63;;
78732;SDS011;68056;52.530;5.454;2023-11-18T03:29:22;19.17;;;10.75;;
78732;SDS011;68056;52.530;5.454;2023-11-18T03:31:48;18.52;;;11.48;;
78732;SDS011;68056;52.530;5.454;2023-11-18T03:34:17;16.33;;;9.32;;
78732;SDS011;68056;52.530;5.454;2023-11-18T03:36:45;15.57;;;9.30;;
78732;SDS011;68056;52.530;5.454;2023-11-18T03:39:14;19.85;;;10.27;;
78732;SDS011;68056;52.530;5.454;2023-11-18T03:41:42;17.67;;;10.38;;
78732;SDS011;68056;52.530;5.454;2023-11-18T03:44:10;16.48;;;9.55;;
78732;SDS011;68056;52.530;5.454;2023-11-18T03:46:38;17.33;;;10.52;;
78732;SDS011;68056;52.530;5.454;2023-11-18T03:49:04;19.95;;;10.90;;
78732;SDS011;68056;52.530;5.454;2023-11-18T03:51:29;18.73;;;10.68;;
78732;SDS011;68056;52.530;5.454;2023-11-18T03:53:55;18.50;;;8.93;;
78732;SDS011;68056;52.530;5.454;2023-11-18T03:56:21;18.55;;;11.20;;
78732;SDS011;68056;52.530;5.454;2023-11-18T03:58:46;22.30;;;11.20;;
78732;SDS011;68056;52.530;5.454;2023-11-18T04:01:24;19.98;;;11.02;;
78732;SDS011;68056;52.530;5.454;2023-11-18T04:03:53;16.25;;;10.60;;
78732;SDS011;68056;52.530;5.454;2023-11-18T04:06:20;17.25;;;11.00;;
78732;SDS011;68056;52.530;5.454;2023-11-18T04:08:46;16.95;;;10.68;;
78732;SDS011;68056;52.530;5.454;2023-11-18T04:11:17;18.55;;;10.95;;
78732;SDS011;68056;52.530;5.454;2023-11-18T04:13:43;16.00;;;9.15;;
78732;SDS011;68056;52.530;5.454;2023-11-18T04:16:12;17.67;;;11.00;;
78732;SDS011;68056;52.530;5.454;2023-11-18T04:18:40;15.90;;;9.93;;
78732;SDS011;68056;52.530;5.454;2023-11-18T04:21:07;16.25;;;9.00;;
78732;SDS011;68056;52.530;5.454;2023-11-18T04:23:33;15.05;;;10.05;;
78732;SDS011;68056;52.530;5.454;2023-11-18T04:26:03;16.58;;;9.85;;
78732;SDS011;68056;52.530;5.454;2023-11-18T04:28:30;19.13;;;10.60;;
78732;SDS011;68056;52.530;5.454;2023-11-18T04:30:56;18.38;;;9.82;;
78732;SDS011;68056;52.530;5.454;2023-11-18T04:33:21;14.38;;;9.27;;
78732;SDS011;68056;52.530;5.454;2023-11-18T04:40:40;18.70;;;9.55;;
78732;SDS011;68056;52.530;5.454;2023-11-18T04:43:06;16.00;;;10.00;;
78732;SDS011;68056;52.530;5.454;2023-11-18T04:45:32;14.50;;;9.73;;
78732;SDS011;68056;52.530;5.454;2023-11-18T04:47:59;17.83;;;9.43;;
78732;SDS011;68056;52.530;5.454;2023-11-18T04:50:24;17.23;;;11.00;;
78732;SDS011;68056;52.530;5.454;2023-11-18T04:52:50;19.55;;;9.80;;
78732;SDS011;68056;52.530;5.454;2023-11-18T04:55:16;14.68;;;9.68;;
78732;SDS011;68056;52.530;5.454;2023-11-18T04:57:41;14.55;;;9.55;;
78732;SDS011;68056;52.530;5.454;2023-11-18T05:00:08;13.07;;;8.18;;
78732;SDS011;68056;52.530;5.454;2023-11-18T05:02:37;17.00;;;10.70;;
78732;SDS011;68056;52.530;5.454;2023-11-18T05:05:03;19.77;;;10.00;;
78732;SDS011;68056;52.530;5.454;2023-11-18T05:07:32;22.92;;;10.90;;
78732;SDS011;68056;52.530;5.454;2023-11-18T05:09:58;14.05;;;9.70;;
78732;SDS011;68056;52.530;5.454;2023-11-18T05:12:24;15.13;;;9.90;;
78732;SDS011;68056;52.530;5.454;2023-11-18T05:14:49;18.17;;;11.38;;
78732;SDS011;68056;52.530;5.454;2023-11-18T05:17:15;15.80;;;9.45;;
78732;SDS011;68056;52.530;5.454;2023-11-18T05:19:41;19.48;;;11.43;;
78732;SDS011;68056;52.530;5.454;2023-11-18T05:22:07;16.67;;;10.30;;
78732;SDS011;68056;52.530;5.454;2023-11-18T05:24:33;19.05;;;11.25;;
78732;SDS011;68056;52.530;5.454;2023-11-18T05:26:59;17.92;;;11.65;;
78732;SDS011;68056;52.530;5.454;2023-11-18T05:29:27;13.73;;;9.48;;
78732;SDS011;68056;52.530;5.454;2023-11-18T05:31:53;15.80;;;10.27;;
78732;SDS011;68056;52.530;5.454;2023-11-18T05:34:22;20.45;;;9.52;;
78732;SDS011;68056;52.530;5.454;2023-11-18T05:36:49;17.00;;;10.40;;
78732;SDS011;68056;52.530;5.454;2023-11-18T05:39:19;14.68;;;9.80;;
78732;SDS011;68056;52.530;5.454;2023-11-18T05:41:46;14.05;;;9.00;;
78732;SDS011;68056;52.530;5.454;2023-11-18T05:44:15;14.27;;;9.05;;
78732;SDS011;68056;52.530;5.454;2023-11-18T05:46:47;17.33;;;10.88;;
78732;SDS011;68056;52.530;5.454;2023-11-18T05:49:16;19.20;;;9.90;;
78732;SDS011;68056;52.530;5.454;2023-11-18T05:51:42;15.57;;;9.35;;
78732;SDS011;68056;52.530;5.454;2023-11-18T05:54:07;23.33;;;10.30;;
78732;SDS011;68056;52.530;5.454;2023-11-18T05:56:33;11.48;;;8.05;;
78732;SDS011;68056;52.530;5.454;2023-11-18T05:58:58;17.85;;;10.02;;
78732;SDS011;68056;52.530;5.454;2023-11-18T06:01:24;18.33;;;11.10;;
78732;SDS011;68056;52.530;5.454;2023-11-18T06:03:52;15.32;;;10.73;;
78732;SDS011;68056;52.530;5.454;2023-11-18T06:06:18;19.85;;;10.75;;
78732;SDS011;68056;52.530;5.454;2023-11-18T06:08:46;19.75;;;10.43;;
78732;SDS011;68056;52.530;5.454;2023-11-18T06:11:12;19.77;;;9.48;;
78732;SDS011;68056;52.530;5.454;2023-11-18T06:13:43;19.98;;;11.02;;
78732;SDS011;68056;52.530;5.454;2023-11-18T06:16:15;19.65;;;10.70;;
78732;SDS011;68056;52.530;5.454;2023-11-18T06:18:44;16.25;;;10.60;;
78732;SDS011;68056;52.530;5.454;2023-11-18T06:21:10;22.02;;;11.20;;
78732;SDS011;68056;52.530;5.454;2023-11-18T06:23:40;19.20;;;10.82;;
78732;SDS011;68056;52.530;5.454;2023-11-18T06:26:06;20.95;;;9.95;;
78732;SDS011;68056;52.530;5.454;2023-11-18T06:28:32;19.20;;;10.20;;
78732;SDS011;68056;52.530;5.454;2023-11-18T06:30:59;21.83;;;11.15;;
78732;SDS011;68056;52.530;5.454;2023-11-18T06:33:26;18.17;;;10.77;;
78732;SDS011;68056;52.530;5.454;2023-11-18T06:35:53;16.42;;;9.32;;
78732;SDS011;68056;52.530;5.454;2023-11-18T06:38:22;17.48;;;11.32;;
78732;SDS011;68056;52.530;5.454;2023-11-18T06:40:49;17.60;;;10.40;;
78732;SDS011;68056;52.530;5.454;2023-11-18T06:45:44;15.98;;;9.90;;
78732;SDS011;68056;52.530;5.454;2023-11-18T06:48:09;21.20;;;11.10;;
78732;SDS011;68056;52.530;5.454;2023-11-18T06:50:35;17.42;;;11.15;;
78732;SDS011;68056;52.530;5.454;2023-11-18T06:53:01;14.73;;;9.73;;
78732;SDS011;68056;52.530;5.454;2023-11-18T06:55:26;18.63;;;11.05;;
78732;SDS011;68056;52.530;5.454;2023-11-18T06:57:52;20.10;;;10.77;;
78732;SDS011;68056;52.530;5.454;2023-11-18T07:00:20;19.08;;;11.25;;
78732;SDS011;68056;52.530;5.454;2023-11-18T07:02:46;23.42;;;11.38;;
78732;SDS011;68056;52.530;5.454;2023-11-18T07:05:12;19.38;;;11.00;;
78732;SDS011;68056;52.530;5.454;2023-11-18T07:07:39;18.35;;;11.15;;
78732;SDS011;68056;52.530;5.454;2023-11-18T07:10:08;18.13;;;10.45;;
78732;SDS011;68056;52.530;5.454;2023-11-18T07:12:37;22.23;;;11.18;;
78732;SDS011;68056;52.530;5.454;2023-11-18T07:15:03;21.45;;;11.02;;
78732;SDS011;68056;52.530;5.454;2023-11-18T07:17:30;16.15;;;9.60;;
78732;SDS011;68056;52.530;5.454;2023-11-18T07:19:55;17.42;;;9.90;;
78732;SDS011;68056;52.530;5.454;2023-11-18T07:22:21;20.27;;;11.63;;
78732;SDS011;68056;52.530;5.454;2023-11-18T07:24:47;20.60;;;10.52;;
78732;SDS011;68056;52.530;5.454;2023-11-18T07:27:12;17.05;;;10.02;;
78732;SDS011;68056;52.530;5.454;2023-11-18T07:29:38;16.08;;;8.65;;
78732;SDS011;68056;52.530;5.454;2023-11-18T07:32:04;19.08;;;9.95;;
78732;SDS011;68056;52.530;5.454;2023-11-18T07:34:31;20.77;;;10.20;;
78732;SDS011;68056;52.530;5.454;2023-11-18T07:36:58;22.08;;;11.18;;
78732;SDS011;68056;52.530;5.454;2023-11-18T07:39:24;19.95;;;11.77;;
78732;SDS011;68056;52.530;5.454;2023-11-18T07:42:08;19.48;;;10.38;;
78732;SDS011;68056;52.530;5.454;2023-11-18T07:44:35;22.65;;;10.40;;
78732;SDS011;68056;52.530;5.454;2023-11-18T07:47:00;24.90;;;11.55;;
78732;SDS011;68056;52.530;5.454;2023-11-18T07:49:26;17.63;;;10.32;;
78732;SDS011;68056;52.530;5.454;2023-11-18T07:51:51;21.13;;;10.90;;
78732;SDS011;68056;52.530;5.454;2023-11-18T07:54:17;25.70;;;11.75;;
78732;SDS011;68056;52.530;5.454;2023-11-18T07:56:43;19.00;;;9.18;;
78732;SDS011;68056;52.530;5.454;2023-11-18T07:59:12;17.42;;;9.80;;
78732;SDS011;68056;52.530;5.454;2023-11-18T08:01:41;19.60;;;10.48;;
78732;SDS011;68056;52.530;5.454;2023-11-18T08:04:09;17.92;;;9.93;;
78732;SDS011;68056;52.530;5.454;2023-11-18T08:06:35;19.45;;;9.90;;
78732;SDS011;68056;52.530;5.454;2023-11-18T08:09:02;17.92;;;9.60;;
78732;SDS011;68056;52.530;5.454;2023-11-18T08:11:28;18.45;;;10.18;;
78732;SDS011;68056;52.530;5.454;2023-11-18T08:13:54;18.83;;;9.20;;
78732;SDS011;68056;52.530;5.454;2023-11-18T08:16:20;22.38;;;10.15;;
78732;SDS011;68056;52.530;5.454;2023-11-18T08:18:47;18.63;;;10.85;;
78732;SDS011;68056;52.530;5.454;2023-11-18T08:21:12;21.60;;;9.32;;
78732;SDS011;68056;52.530;5.454;2023-11-18T08:23:38;20.52;;;9.80;;
78732;SDS011;68056;52.530;5.454;2023-11-18T08:26:04;16.88;;;9.15;;
78732;SDS011;68056;52.530;5.454;2023-11-18T08:28:30;18.83;;;9.60;;
78732;SDS011;68056;52.530;5.454;2023-11-18T08:30:56;20.27;;;11.05;;
78732;SDS011;68056;52.530;5.454;2023-11-18T08:33:22;19.65;;;10.45;;
78732;SDS011;68056;52.530;5.454;2023-11-18T08:35:49;17.88;;;9.05;;
78732;SDS011;68056;52.530;5.454;2023-11-18T08:38:15;16.10;;;8.60;;
78732;SDS011;68056;52.530;5.454;2023-11-18T08:40:41;17.27;;;9.02;;
78732;SDS011;68056;52.530;5.454;2023-11-18T08:43:07;21.27;;;10.27;;
78732;SDS011;68056;52.530;5.454;2023-11-18T08:45:33;17.33;;;9.38;;
78732;SDS011;68056;52.530;5.454;2023-11-18T08:48:00;17.75;;;9.43;;
78732;SDS011;68056;52.530;5.454;2023-11-18T08:50:30;15.95;;;8.73;;
78732;SDS011;68056;52.530;5.454;2023-11-18T08:52:56;16.25;;;8.38;;
78732;SDS011;68056;52.530;5.454;2023-11-18T08:55:27;15.10;;;8.82;;
78732;SDS011;68056;52.530;5.454;2023-11-18T08:58:17;17.67;;;8.48;;
78732;SDS011;68056;52.530;5.454;2023-11-18T09:00:57;18.98;;;9.65;;
78732;SDS011;68056;52.530;5.454;2023-11-18T09:03:38;17.23;;;9.13;;
78732;SDS011;68056;52.530;5.454;2023-11-18T09:06:08;21.17;;;9.88;;
78732;SDS011;68056;52.530;5.454;2023-11-18T09:08:44;17.33;;;10.13;;
78732;SDS011;68056;52.530;5.454;2023-11-18T09:11:11;13.80;;;7.45;;
78732;SDS011;68056;52.530;5.454;2023-11-18T09:13:42;13.63;;;8.05;;
78732;SDS011;68056;52.530;5.454;2023-11-18T09:16:19;14.95;;;8.70;;
78732;SDS011;68056;52.530;5.454;2023-11-18T09:18:50;11.55;;;7.05;;
78732;SDS011;68056;52.530;5.454;2023-11-18T09:21:16;12.75;;;7.75;;
78732;SDS011;68056;52.530;5.454;2023-11-18T09:23:48;14.10;;;8.05;;
78732;SDS011;68056;52.530;5.454;2023-11-18T09:26:14;15.82;;;9.25;;
78732;SDS011;68056;52.530;5.454;2023-11-18T09:28:41;18.48;;;8.60;;
78732;SDS011;68056;52.530;5.454;2023-11-18T09:31:07;15.02;;;8.15;;
78732;SDS011;68056;52.530;5.454;2023-11-18T09:33:40;14.75;;;8.65;;
78732;SDS011;68056;52.530;5.454;2023-11-18T09:36:11;16.23;;;9.05;;
78732;SDS011;68056;52.530;5.454;2023-11-18T09:38:39;13.30;;;7.88;;
78732;SDS011;68056;52.530;5.454;2023-11-18T09:41:06;17.08;;;8.65;;
78732;SDS011;68056;52.530;5.454;2023-11-18T09:43:38;13.43;;;7.18;;
78732;SDS011;68056;52.530;5.454;2023-11-18T09:46:32;11.88;;;7.28;;
78732;SDS011;68056;52.530;5.454;2023-11-18T09:49:03;14.73;;;7.40;;
78732;SDS011;68056;52.530;5.454;2023-11-18T09:51:40;9.98;;;6.22;;
78732;SDS011;68056;52.530;5.454;2023-11-18T09:54:18;13.10;;;6.43;;
78732;SDS011;68056;52.530;5.454;2023-11-18T09:57:04;11.45;;;6.82;;
78732;SDS011;68056;52.530;5.454;2023-11-18T10:02:23;12.27;;;7.80;;
78732;SDS011;68056;52.530;5.454;2023-11-18T10:04:49;10.45;;;7.35;;
78732;SDS011;68056;52.530;5.454;2023-11-18T10:07:22;13.68;;;6.70;;
78732;SDS011;68056;52.530;5.454;2023-11-18T10:09:51;11.25;;;6.63;;
78732;SDS011;68056;52.530;5.454;2023-11-18T10:12:22;12.63;;;7.97;;
78732;SDS011;68056;52.530;5.454;2023-11-18T10:14:48;14.95;;;7.60;;
78732;SDS011;68056;52.530;5.454;2023-11-18T10:17:17;10.77;;;6.82;;
78732;SDS011;68056;52.530;5.454;2023-11-18T10:20:16;15.18;;;6.95;;
78732;SDS011;68056;52.530;5.454;2023-11-18T10:22:39;9.05;;;6.30;;
78732;SDS011;68056;52.530;5.454;2023-11-18T10:25:05;6.82;;;4.60;;
78732;SDS011;68056;52.530;5.454;2023-11-18T10:27:31;8.57;;;5.20;;
78732;SDS011;68056;52.530;5.454;2023-11-18T10:30:05;9.15;;;6.20;;
78732;SDS011;68056;52.530;5.454;2023-11-18T10:32:43;8.98;;;6.00;;
78732;SDS011;68056;52.530;5.454;2023-11-18T10:35:21;12.35;;;6.72;;
78732;SDS011;68056;52.530;5.454;2023-11-18T10:37:46;9.80;;;5.85;;
78732;SDS011;68056;52.530;5.454;2023-11-18T10:40:12;9.23;;;6.30;;
78732;SDS011;68056;52.530;5.454;2023-11-18T10:42:40;13.90;;;6.20;;
78732;SDS011;68056;52.530;5.454;2023-11-18T10:45:08;12.65;;;6.35;;
78732;SDS011;68056;52.530;5.454;2023-11-18T10:47:37;10.85;;;5.80;;
78732;SDS011;68056;52.530;5.454;2023-11-18T10:50:07;11.38;;;6.38;;
78732;SDS011;68056;52.530;5.454;2023-11-18T10:55:02;8.35;;;5.68;;
78732;SDS011;68056;52.530;5.454;2023-11-18T10:57:36;10.25;;;5.75;;
78732;SDS011;68056;52.530;5.454;2023-11-18T11:00:04;9.18;;;5.82;;
78732;SDS011;68056;52.530;5.454;2023-11-18T11:02:43;10.88;;;5.85;;
78732;SDS011;68056;52.530;5.454;2023-11-18T11:05:09;8.93;;;5.00;;
78732;SDS011;68056;52.530;5.454;2023-11-18T11:07:41;6.88;;;4.25;;
78732;SDS011;68056;52.530;5.454;2023-11-18T11:10:08;11.38;;;5.70;;
78732;SDS011;68056;52.530;5.454;2023-11-18T11:12:37;7.82;;;5.22;;
78732;SDS011;68056;52.530;5.454;2023-11-18T11:15:17;8.55;;;5.22;;
78732;SDS011;68056;52.530;5.454;2023-11-18T11:17:56;9.30;;;5.03;;
78732;SDS011;68056;52.530;5.454;2023-11-18T11:20:41;11.77;;;5.28;;
78732;SDS011;68056;52.530;5.454;2023-11-18T11:26:04;11.55;;;5.90;;
78732;SDS011;68056;52.530;5.454;2023-11-18T11:33:55;6.43;;;4.50;;
78732;SDS011;68056;52.530;5.454;2023-11-18T11:36:25;7.13;;;5.28;;
78732;SDS011;68056;52.530;5.454;2023-11-18T11:38:58;6.80;;;4.70;;
78732;SDS011;68056;52.530;5.454;2023-11-18T11:43:52;7.22;;;3.97;;
78732;SDS011;68056;52.530;5.454;2023-11-18T11:46:24;9.90;;;4.90;;
78732;SDS011;68056;52.530;5.454;2023-11-18T11:48:57;6.63;;;4.40;;
78732;SDS011;68056;52.530;5.454;2023-11-18T11:51:30;10.00;;;5.13;;
78732;SDS011;68056;52.530;5.454;2023-11-18T11:54:04;9.23;;;5.25;;
78732;SDS011;68056;52.530;5.454;2023-11-18T11:56:43;8.60;;;4.55;;
78732;SDS011;68056;52.530;5.454;2023-11-18T11:59:12;10.40;;;5.43;;
78732;SDS011;68056;52.530;5.454;2023-11-18T12:01:40;8.98;;;4.60;;
78732;SDS011;68056;52.530;5.454;2023-11-18T12:04:10;10.82;;;4.88;;
78732;SDS011;68056;52.530;5.454;2023-11-18T12:06:45;5.25;;;3.35;;
78732;SDS011;68056;52.530;5.454;2023-11-18T12:09:18;8.73;;;3.78;;
78732;SDS011;68056;52.530;5.454;2023-11-18T12:11:47;8.27;;;4.50;;
78732;SDS011;68056;52.530;5.454;2023-11-18T12:14:16;10.07;;;3.88;;
78732;SDS011;68056;52.530;5.454;2023-11-18T12:17:07;8.15;;;4.20;;
78732;SDS011;68056;52.530;5.454;2023-11-18T12:19:39;6.85;;;4.53;;
78732;SDS011;68056;52.530;5.454;2023-11-18T12:22:21;10.43;;;5.05;;
78732;SDS011;68056;52.530;5.454;2023-11-18T12:47:03;6.00;;;3.42;;
78732;SDS011;68056;52.530;5.454;2023-11-18T12:49:49;6.53;;;3.50;;
78732;SDS011;68056;52.530;5.454;2023-11-18T12:52:21;7.13;;;3.25;;
78732;SDS011;68056;52.530;5.454;2023-11-18T12:54:48;4.53;;;3.08;;
78732;SDS011;68056;52.530;5.454;2023-11-18T12:57:22;6.78;;;3.17;;
78732;SDS011;68056;52.530;5.454;2023-11-18T12:59:56;5.43;;;3.30;;
78732;SDS011;68056;52.530;5.454;2023-11-18T13:02:21;3.97;;;2.72;;
78732;SDS011;68056;52.530;5.454;2023-11-18T13:04:48;6.32;;;3.60;;
78732;SDS011;68056;52.530;5.454;2023-11-18T13:07:15;7.68;;;3.75;;
78732;SDS011;68056;52.530;5.454;2023-11-18T13:09:44;5.22;;;3.50;;
78732;SDS011;68056;52.530;5.454;2023-11-18T13:12:11;6.13;;;3.58;;
78732;SDS011;68056;52.530;5.454;2023-11-18T13:14:40;6.72;;;3.17;;
78732;SDS011;68056;52.530;5.454;2023-11-18T13:17:11;8.27;;;3.58;;
78732;SDS011;68056;52.530;5.454;2023-11-18T13:19:38;3.95;;;2.85;;
78732;SDS011;68056;52.530;5.454;2023-11-18T13:22:08;7.55;;;3.10;;
78732;SDS011;68056;52.530;5.454;2023-11-18T13:24:38;5.53;;;2.88;;
78732;SDS011;68056;52.530;5.454;2023-11-18T13:27:06;4.70;;;2.90;;
78732;SDS011;68056;52.530;5.454;2023-11-18T13:29:34;6.53;;;2.65;;
78732;SDS011;68056;52.530;5.454;2023-11-18T13:32:01;5.55;;;3.08;;
78732;SDS011;68056;52.530;5.454;2023-11-18T13:34:35;4.75;;;2.50;;
78732;SDS011;68056;52.530;5.454;2023-11-18T13:37:03;4.43;;;2.38;;
78732;SDS011;68056;52.530;5.454;2023-11-18T13:39:30;5.00;;;2.60;;
78732;SDS011;68056;52.530;5.454;2023-11-18T13:41:56;3.22;;;2.55;;
78732;SDS011;68056;52.530;5.454;2023-11-18T13:44:32;4.07;;;2.58;;
78732;SDS011;68056;52.530;5.454;2023-11-18T13:47:03;4.85;;;2.28;;
78732;SDS011;68056;52.530;5.454;2023-11-18T13:49:36;4.35;;;2.70;;
78732;SDS011;68056;52.530;5.454;2023-11-18T13:52:06;6.45;;;2.45;;
78732;SDS011;68056;52.530;5.454;2023-11-18T13:54:36;3.72;;;2.38;;
78732;SDS011;68056;52.530;5.454;2023-11-18T13:57:03;3.60;;;2.33;;
78732;SDS011;68056;52.530;5.454;2023-11-18T13:59:29;3.78;;;2.28;;
78732;SDS011;68056;52.530;5.454;2023-11-18T14:01:55;6.32;;;2.78;;
78732;SDS011;68056;52.530;5.454;2023-11-18T14:04:28;5.68;;;2.65;;
78732;SDS011;68056;52.530;5.454;2023-11-18T14:06:58;6.22;;;2.33;;
78732;SDS011;68056;52.530;5.454;2023-11-18T14:09:27;3.40;;;2.00;;
78732;SDS011;68056;52.530;5.454;2023-11-18T14:11:54;4.30;;;2.15;;
78732;SDS011;68056;52.530;5.454;2023-11-18T14:14:21;2.17;;;1.80;;
78732;SDS011;68056;52.530;5.454;2023-11-18T14:16:50;2.90;;;1.73;;
78732;SDS011;68056;52.530;5.454;2023-11-18T14:19:18;2.17;;;1.60;;
78732;SDS011;68056;52.530;5.454;2023-11-18T14:21:43;2.40;;;2.03;;
78732;SDS011;68056;52.530;5.454;2023-11-18T14:24:10;3.28;;;2.10;;
78732;SDS011;68056;52.530;5.454;2023-11-18T14:26:36;3.17;;;2.20;;
78732;SDS011;68056;52.530;5.454;2023-11-18T14:29:05;2.20;;;1.85;;
78732;SDS011;68056;52.530;5.454;2023-11-18T14:31:31;2.33;;;1.67;;
78732;SDS011;68056;52.530;5.454;2023-11-18T14:33:57;2.28;;;1.80;;
78732;SDS011;68056;52.530;5.454;2023-11-18T14:36:24;2.33;;;1.70;;
78732;SDS011;68056;52.530;5.454;2023-11-18T14:38:53;2.20;;;1.40;;
78732;SDS011;68056;52.530;5.454;2023-11-18T14:41:19;3.35;;;1.75;;
78732;SDS011;68056;52.530;5.454;2023-11-18T14:43:49;3.58;;;1.90;;
78732;SDS011;68056;52.530;5.454;2023-11-18T14:46:16;1.60;;;1.50;;
78732;SDS011;68056;52.530;5.454;2023-11-18T14:48:41;2.35;;;1.73;;
78732;SDS011;68056;52.530;5.454;2023-11-18T14:51:07;2.17;;;1.60;;
78732;SDS011;68056;52.530;5.454;2023-11-18T14:53:33;3.22;;;1.90;;
78732;SDS011;68056;52.530;5.454;2023-11-18T14:55:59;2.72;;;1.50;;
78732;SDS011;68056;52.530;5.454;2023-11-18T14:58:25;1.90;;;1.30;;
78732;SDS011;68056;52.530;5.454;2023-11-18T15:00:51;1.58;;;1.27;;
78732;SDS011;68056;52.530;5.454;2023-11-18T15:03:16;2.53;;;1.20;;
78732;SDS011;68056;52.530;5.454;2023-11-18T15:05:42;1.50;;;1.13;;
78732;SDS011;68056;52.530;5.454;2023-11-18T15:08:09;1.50;;;1.10;;
78732;SDS011;68056;52.530;5.454;2023-11-18T15:10:39;2.17;;;1.20;;
78732;SDS011;68056;52.530;5.454;2023-11-18T15:13:07;2.22;;;1.48;;
78732;SDS011;68056;52.530;5.454;2023-11-18T15:15:37;1.55;;;1.00;;
78732;SDS011;68056;52.530;5.454;2023-11-18T15:18:06;1.75;;;1.45;;
78732;SDS011;68056;52.530;5.454;2023-11-18T15:20:34;1.98;;;1.55;;
78732;SDS011;68056;52.530;5.454;2023-11-18T15:23:01;2.25;;;1.52;;
78732;SDS011;68056;52.530;5.454;2023-11-18T15:25:27;2.50;;;1.58;;
78732;SDS011;68056;52.530;5.454;2023-11-18T15:27:52;1.98;;;1.70;;
78732;SDS011;68056;52.530;5.454;2023-11-18T15:30:18;1.50;;;1.40;;